createdAt,value
2019-02-02T00:00:43.956Z,24.90
2019-02-02T00:03:12.772Z,27.60
2019-02-02T00:05:41.367Z,23.70
2019-02-02T00:08:09.994Z,25.37
2019-02-02T00:10:38.508Z,26.30
2019-02-02T00:13:07.155Z,27.17
2019-02-02T00:15:35.893Z,27.90
2019-02-02T00:18:05.018Z,28.23
2019-02-02T00:20:33.631Z,26.30
2019-02-02T00:23:02.324Z,29.57
2019-02-02T00:25:30.979Z,27.33
2019-02-02T00:27:59.584Z,27.77
2019-02-02T00:30:28.311Z,29.57
2019-02-02T00:32:56.813Z,29.23
2019-02-02T00:35:25.502Z,28.07
2019-02-02T00:37:54.215Z,31.77
2019-02-02T00:40:22.828Z,30.13
2019-02-02T00:42:51.325Z,29.93
2019-02-02T00:45:21.328Z,32.30
2019-02-02T00:47:49.981Z,32.43
2019-02-02T00:50:18.588Z,31.90
2019-02-02T00:52:47.292Z,29.43
2019-02-02T00:55:18.112Z,30.33
2019-02-02T00:57:53.431Z,31.47
2019-02-02T01:00:20.274Z,31.37
2019-02-02T01:02:49.557Z,31.03
2019-02-02T01:05:19.674Z,31.90
2019-02-02T01:07:48.404Z,32.70
2019-02-02T01:10:20.132Z,32.73
2019-02-02T01:12:48.644Z,33.17
2019-02-02T01:15:17.318Z,36.13
2019-02-02T01:17:45.927Z,34.60
2019-02-02T01:20:14.445Z,33.63
2019-02-02T01:22:43.068Z,38.20
2019-02-02T01:25:14.227Z,36.60
2019-02-02T01:27:42.838Z,35.20
2019-02-02T01:30:14.460Z,36.43
2019-02-02T01:32:42.973Z,33.83
2019-02-02T01:35:13.844Z,36.53
2019-02-02T01:37:42.516Z,37.23
2019-02-02T01:40:16.573Z,36.77
2019-02-02T01:42:45.244Z,37.80
2019-02-02T01:45:16.556Z,38.77
2019-02-02T01:47:45.139Z,39.97
2019-02-02T01:50:15.988Z,41.60
2019-02-02T01:52:44.576Z,40.27
2019-02-02T01:55:15.882Z,44.03
2019-02-02T01:57:44.480Z,41.20
2019-02-02T02:00:31.940Z,42.87
2019-02-02T02:03:00.451Z,41.47
2019-02-02T02:05:29.108Z,42.30
2019-02-02T02:07:57.803Z,42.10
2019-02-02T02:10:26.333Z,44.37
2019-02-02T02:12:54.916Z,44.97
2019-02-02T02:15:23.566Z,46.00
2019-02-02T02:17:52.075Z,45.60
2019-02-02T02:20:22.273Z,44.53
2019-02-02T02:22:51.172Z,44.70
2019-02-02T02:25:20.715Z,45.60
2019-02-02T02:27:49.804Z,46.93
2019-02-02T02:30:23.165Z,44.10
2019-02-02T02:32:52.487Z,42.93
2019-02-02T02:35:20.979Z,47.07
2019-02-02T02:37:49.668Z,46.70
2019-02-02T02:40:19.948Z,45.03
2019-02-02T02:42:48.460Z,47.77
2019-02-02T02:45:17.172Z,44.83
2019-02-02T02:47:45.826Z,45.23
2019-02-02T02:50:16.948Z,45.10
2019-02-02T02:52:45.605Z,43.50
2019-02-02T02:55:15.407Z,43.37
2019-02-02T02:57:43.987Z,45.30
2019-02-02T03:00:29.819Z,45.57
2019-02-02T03:02:58.292Z,43.73
2019-02-02T03:05:27.156Z,48.17
2019-02-02T03:07:55.714Z,43.37
2019-02-02T03:10:27.109Z,44.07
2019-02-02T03:12:55.666Z,46.23
2019-02-02T03:15:24.252Z,44.23
2019-02-02T03:17:52.819Z,45.33
2019-02-02T03:20:21.307Z,44.33
2019-02-02T03:22:50.036Z,48.33
2019-02-02T03:25:24.092Z,45.07
2019-02-02T03:27:52.650Z,45.57
2019-02-02T03:30:21.586Z,44.17
2019-02-02T03:32:50.201Z,46.60
2019-02-02T03:35:20.938Z,44.37
2019-02-02T03:37:49.587Z,45.50
2019-02-02T03:40:19.963Z,43.67
2019-02-02T03:42:48.539Z,44.80
2019-02-02T03:45:19.114Z,45.47
2019-02-02T03:47:47.784Z,44.60
2019-02-02T03:50:16.499Z,44.00
2019-02-02T03:52:45.155Z,44.43
2019-02-02T03:55:15.185Z,43.80
2019-02-02T03:57:43.940Z,48.40
2019-02-02T04:00:14.702Z,45.97
2019-02-02T04:02:43.413Z,49.50
2019-02-02T04:05:14.594Z,46.60
2019-02-02T04:07:43.188Z,45.23
2019-02-02T04:10:12.988Z,48.27
2019-02-02T04:12:41.604Z,46.23
2019-02-02T04:15:11.789Z,47.30
2019-02-02T04:17:40.308Z,46.43
2019-02-02T04:20:12.027Z,45.67
2019-02-02T04:22:40.676Z,44.47
2019-02-02T04:25:09.298Z,41.83
2019-02-02T04:27:37.947Z,44.53
2019-02-02T04:30:12.658Z,45.60
2019-02-02T04:32:41.220Z,44.57
2019-02-02T04:35:10.459Z,46.13
2019-02-02T04:37:38.956Z,46.77
2019-02-02T04:40:10.741Z,45.93
2019-02-02T04:42:39.291Z,44.73
2019-02-02T04:45:10.338Z,45.73
2019-02-02T04:47:38.883Z,46.83
2019-02-02T04:50:10.248Z,45.17
2019-02-02T04:52:38.756Z,46.23
2019-02-02T04:55:08.513Z,47.13
2019-02-02T04:57:37.164Z,47.33
2019-02-02T05:00:11.348Z,46.67
2019-02-02T05:02:40.000Z,45.37
2019-02-02T05:05:11.706Z,46.13
2019-02-02T05:07:40.245Z,46.33
2019-02-02T05:10:12.036Z,46.87
2019-02-02T05:12:40.548Z,47.47
2019-02-02T05:15:09.339Z,43.70
2019-02-02T05:17:37.913Z,43.03
2019-02-02T05:20:09.924Z,45.47
2019-02-02T05:22:38.435Z,45.10
2019-02-02T05:25:08.306Z,44.43
2019-02-02T05:27:37.035Z,42.17
2019-02-02T05:30:14.763Z,45.83
2019-02-02T05:32:43.339Z,39.67
2019-02-02T05:35:11.986Z,43.57
2019-02-02T05:37:40.644Z,43.73
2019-02-02T05:40:17.379Z,42.03
2019-02-02T05:42:45.940Z,43.70
2019-02-02T05:45:16.682Z,42.90
2019-02-02T05:47:45.324Z,43.27
2019-02-02T05:50:16.380Z,46.40
2019-02-02T05:52:45.013Z,44.33
2019-02-02T05:55:15.540Z,41.67
2019-02-02T05:57:44.193Z,42.60
2019-02-02T06:00:19.604Z,42.30
2019-02-02T06:02:48.276Z,43.07
2019-02-02T06:05:16.946Z,41.00
2019-02-02T06:07:45.643Z,42.53
2019-02-02T06:10:16.611Z,43.73
2019-02-02T06:12:45.259Z,40.50
2019-02-02T06:15:13.965Z,42.57
2019-02-02T06:17:42.482Z,42.67
2019-02-02T06:20:13.236Z,42.43
2019-02-02T06:22:41.916Z,42.17
2019-02-02T06:25:12.766Z,41.83
2019-02-02T06:27:41.283Z,43.27
2019-02-02T06:30:18.868Z,42.47
2019-02-02T06:32:47.292Z,43.27
2019-02-02T06:35:17.052Z,42.60
2019-02-02T06:37:45.746Z,43.37
2019-02-02T06:40:15.595Z,43.27
2019-02-02T06:42:44.196Z,41.47
2019-02-02T06:45:19.020Z,43.23
2019-02-02T06:47:47.692Z,43.70
2019-02-02T06:50:17.372Z,43.57
2019-02-02T06:52:46.028Z,43.90
2019-02-02T06:55:18.701Z,47.83
2019-02-02T06:57:47.303Z,44.60
2019-02-02T07:00:27.310Z,43.57
2019-02-02T07:02:55.979Z,43.03
2019-02-02T07:05:24.639Z,43.10
2019-02-02T07:07:53.254Z,45.07
2019-02-02T07:10:27.428Z,46.77
2019-02-02T07:12:56.092Z,39.83
2019-02-02T07:15:29.789Z,45.03
2019-02-02T07:17:58.362Z,42.13
2019-02-02T07:20:26.972Z,43.53
2019-02-02T07:22:55.540Z,46.50
2019-02-02T07:25:24.063Z,43.73
2019-02-02T07:27:52.634Z,43.20
2019-02-02T07:30:28.706Z,48.83
2019-02-02T07:32:53.371Z,43.27
2019-02-02T07:35:22.042Z,46.73
2019-02-02T07:37:50.764Z,46.57
2019-02-02T07:40:20.759Z,41.67
2019-02-02T07:42:49.348Z,43.97
2019-02-02T07:45:20.250Z,45.53
2019-02-02T07:47:49.135Z,46.27
2019-02-02T07:50:18.020Z,43.43
2019-02-02T07:52:46.506Z,43.47
2019-02-02T07:55:16.986Z,43.13
2019-02-02T07:57:45.555Z,44.20
2019-02-02T08:00:40.310Z,44.23
2019-02-02T08:03:01.877Z,45.30
2019-02-02T08:05:30.538Z,45.87
2019-02-02T08:07:59.215Z,45.20
2019-02-02T08:10:27.859Z,45.37
2019-02-02T08:12:56.525Z,44.63
2019-02-02T08:15:27.130Z,43.90
2019-02-02T08:17:55.813Z,46.73
2019-02-02T08:20:26.195Z,46.40
2019-02-02T08:22:56.539Z,42.97
2019-02-02T08:25:25.317Z,43.93
2019-02-02T08:27:53.923Z,44.00
2019-02-02T08:30:30.790Z,45.73
2019-02-02T08:32:59.363Z,44.47
2019-02-02T08:35:27.955Z,43.53
2019-02-02T08:37:56.589Z,42.97
2019-02-02T08:40:25.268Z,44.20
2019-02-02T08:42:53.796Z,44.90
2019-02-02T08:45:22.323Z,44.17
2019-02-02T08:47:50.890Z,43.13
2019-02-02T08:50:24.836Z,45.07
2019-02-02T08:52:53.481Z,43.70
2019-02-02T08:55:22.150Z,44.13
2019-02-02T08:57:50.697Z,44.83
2019-02-02T09:00:20.221Z,42.60
2019-02-02T09:02:48.894Z,48.23
2019-02-02T09:05:19.396Z,43.47
2019-02-02T09:07:48.223Z,44.30
2019-02-02T09:10:21.747Z,42.70
2019-02-02T09:12:50.407Z,43.53
2019-02-02T09:15:19.523Z,43.87
2019-02-02T09:17:48.081Z,42.40
2019-02-02T09:20:16.759Z,43.47
2019-02-02T09:22:45.932Z,43.10
2019-02-02T09:25:16.244Z,42.57
2019-02-02T09:27:44.892Z,42.20
2019-02-02T09:30:25.811Z,43.87
2019-02-02T09:32:54.227Z,45.07
2019-02-02T09:35:22.668Z,42.90
2019-02-02T09:37:51.370Z,43.60
2019-02-02T09:40:20.270Z,45.63
2019-02-02T09:42:48.916Z,45.57
2019-02-02T09:45:19.549Z,47.33
2019-02-02T09:47:48.078Z,45.77
2019-02-02T09:50:21.756Z,44.90
2019-02-02T09:52:50.470Z,42.03
2019-02-02T09:55:21.571Z,48.00
2019-02-02T09:57:50.739Z,43.70
2019-02-02T10:00:25.204Z,42.90
2019-02-02T10:02:53.870Z,44.20
2019-02-02T10:05:22.543Z,45.17
2019-02-02T10:07:51.202Z,43.17
2019-02-02T10:10:28.099Z,48.60
2019-02-02T10:12:56.799Z,46.20
2019-02-02T10:15:25.474Z,43.40
2019-02-02T10:17:53.980Z,44.63
2019-02-02T10:20:30.700Z,42.17
2019-02-02T10:23:00.484Z,44.90
2019-02-02T10:25:30.717Z,44.23
2019-02-02T10:27:59.396Z,42.17
2019-02-02T10:30:30.676Z,44.80
2019-02-02T10:32:59.332Z,41.73
2019-02-02T10:35:28.044Z,44.33
2019-02-02T10:37:56.637Z,45.00
2019-02-02T10:40:25.210Z,42.40
2019-02-02T10:42:53.835Z,43.07
2019-02-02T10:45:22.507Z,45.10
2019-02-02T10:47:51.179Z,45.03
2019-02-02T10:50:21.482Z,43.07
2019-02-02T10:52:50.322Z,42.73
2019-02-02T10:55:19.027Z,43.87
2019-02-02T10:57:47.669Z,44.03
2019-02-02T11:00:19.194Z,45.47
2019-02-02T11:02:47.796Z,47.40
2019-02-02T11:05:16.511Z,46.30
2019-02-02T11:07:45.229Z,46.37
2019-02-02T11:10:18.305Z,45.40
2019-02-02T11:12:47.421Z,44.27
2019-02-02T11:15:20.758Z,47.37
2019-02-02T11:17:49.364Z,46.27
2019-02-02T11:20:20.683Z,45.60
2019-02-02T11:22:49.206Z,47.23
2019-02-02T11:25:18.049Z,45.07
2019-02-02T11:27:46.736Z,43.60
2019-02-02T11:30:20.061Z,44.17
2019-02-02T11:32:48.715Z,47.23
2019-02-02T11:35:21.094Z,48.90
2019-02-02T11:37:49.531Z,49.13
2019-02-02T11:40:23.908Z,41.73
2019-02-02T11:42:52.627Z,48.10
2019-02-02T11:45:21.124Z,41.73
2019-02-02T11:47:49.787Z,46.83
2019-02-02T11:50:20.564Z,49.33
2019-02-02T11:52:49.212Z,45.63
2019-02-02T11:55:23.837Z,45.03
2019-02-02T11:57:52.444Z,50.10
2019-02-02T12:00:26.108Z,46.23
2019-02-02T12:02:54.612Z,46.17
2019-02-02T12:05:23.220Z,45.07
2019-02-02T12:07:51.733Z,45.60
2019-02-02T12:10:28.092Z,50.23
2019-02-02T12:12:56.674Z,45.03
2019-02-02T12:15:25.346Z,45.10
2019-02-02T12:17:54.096Z,45.87
2019-02-02T12:20:23.651Z,48.37
2019-02-02T12:22:52.267Z,49.53
2019-02-02T12:25:20.924Z,46.73
2019-02-02T12:27:49.579Z,46.53
2019-02-02T12:30:23.606Z,47.67
2019-02-02T12:32:52.346Z,44.43
2019-02-02T12:35:23.540Z,46.90
2019-02-02T12:37:52.193Z,48.07
2019-02-02T12:40:23.284Z,48.07
2019-02-02T12:42:51.851Z,48.13
2019-02-02T12:45:35.444Z,48.03
2019-02-02T12:48:04.085Z,48.07
2019-02-02T12:50:32.699Z,46.77
2019-02-02T12:53:01.422Z,47.17
2019-02-02T12:55:29.923Z,44.10
2019-02-02T12:57:58.381Z,45.53
2019-02-02T13:00:27.107Z,44.03
2019-02-02T13:02:55.724Z,46.57
2019-02-02T13:05:24.478Z,45.13
2019-02-02T13:07:53.048Z,44.23
2019-02-02T13:10:27.442Z,43.37
2019-02-02T13:12:56.108Z,42.93
2019-02-02T13:15:24.724Z,43.63
2019-02-02T13:17:53.229Z,44.63
2019-02-02T13:20:21.809Z,45.27
2019-02-02T13:22:50.451Z,47.17
2019-02-02T13:25:23.103Z,44.60
2019-02-02T13:27:51.764Z,45.93
2019-02-02T13:30:23.594Z,51.27
2019-02-02T13:32:52.205Z,52.30
2019-02-02T13:35:21.764Z,50.00
2019-02-02T13:37:50.520Z,47.27
2019-02-02T13:40:21.422Z,53.80
2019-02-02T13:42:50.092Z,46.07
2019-02-02T13:45:20.535Z,43.57
2019-02-02T13:47:50.655Z,46.37
2019-02-02T13:50:19.547Z,47.07
2019-02-02T13:52:49.526Z,41.43
2019-02-02T13:55:18.108Z,40.03
2019-02-02T13:57:46.763Z,43.00
2019-02-02T14:00:27.005Z,41.77
2019-02-02T14:03:03.013Z,38.53
2019-02-02T14:05:25.805Z,36.57
2019-02-02T14:07:54.547Z,40.00
2019-02-02T14:10:31.409Z,41.73
2019-02-02T14:13:00.116Z,34.23
2019-02-02T14:15:28.636Z,36.77
2019-02-02T14:17:57.224Z,38.50
2019-02-02T14:20:25.860Z,36.17
2019-02-02T14:22:54.394Z,35.17
2019-02-02T14:25:22.875Z,37.03
2019-02-02T14:27:51.445Z,36.03
2019-02-02T14:30:24.380Z,38.10
2019-02-02T14:32:54.982Z,44.53
2019-02-02T14:35:27.531Z,39.93
2019-02-02T14:37:56.036Z,36.23
2019-02-02T14:40:24.701Z,35.23
2019-02-02T14:42:53.463Z,36.70
2019-02-02T14:45:27.430Z,35.03
2019-02-02T14:47:55.836Z,35.87
2019-02-02T14:50:24.668Z,35.77
2019-02-02T14:52:54.131Z,36.43
2019-02-02T14:55:28.116Z,35.27
2019-02-02T14:57:56.718Z,34.43
2019-02-02T15:00:29.707Z,34.97
2019-02-02T15:02:58.300Z,33.33
2019-02-02T15:05:26.798Z,32.20
2019-02-02T15:07:55.452Z,34.17
2019-02-02T15:10:24.570Z,31.87
2019-02-02T15:12:54.346Z,30.97
2019-02-02T15:15:22.809Z,35.50
2019-02-02T15:17:51.380Z,34.67
2019-02-02T15:20:28.180Z,33.47
2019-02-02T15:22:56.716Z,34.10
2019-02-02T15:25:25.237Z,32.00
2019-02-02T15:27:53.772Z,35.43
2019-02-02T15:30:27.700Z,33.47
2019-02-02T15:32:56.340Z,31.87
2019-02-02T15:35:24.995Z,29.27
2019-02-02T15:37:53.588Z,31.50
2019-02-02T15:40:22.247Z,32.10
2019-02-02T15:42:50.892Z,32.77
2019-02-02T15:45:27.187Z,31.43
2019-02-02T15:47:55.908Z,29.67
2019-02-02T15:50:24.538Z,29.30
2019-02-02T15:52:53.252Z,29.27
2019-02-02T15:55:26.075Z,31.77
2019-02-02T15:57:54.676Z,33.07
2019-02-02T16:00:25.954Z,31.17
2019-02-02T16:02:54.607Z,30.10
2019-02-02T16:05:23.623Z,28.97
2019-02-02T16:07:52.348Z,28.73
2019-02-02T16:10:23.578Z,30.23
2019-02-02T16:12:52.420Z,30.30
2019-02-02T16:15:20.980Z,28.43
2019-02-02T16:17:49.558Z,28.13
2019-02-02T16:20:26.378Z,28.17
2019-02-02T16:22:54.965Z,28.70
2019-02-02T16:25:23.580Z,28.57
2019-02-02T16:27:52.197Z,28.33
2019-02-02T16:30:26.186Z,27.10
2019-02-02T16:32:54.772Z,27.97
2019-02-02T16:35:23.446Z,30.17
2019-02-02T16:37:51.996Z,29.63
2019-02-02T16:40:25.250Z,28.90
2019-02-02T16:42:54.141Z,29.17
2019-02-02T16:45:24.726Z,26.10
2019-02-02T16:47:53.485Z,30.27
2019-02-02T16:50:22.210Z,30.07
2019-02-02T16:52:50.906Z,29.07
2019-02-02T16:55:21.300Z,31.43
2019-02-02T16:57:50.021Z,30.30
2019-02-02T17:00:21.220Z,31.07
2019-02-02T17:02:49.877Z,30.47
2019-02-02T17:05:18.443Z,27.17
2019-02-02T17:07:47.031Z,31.20
2019-02-02T17:10:20.738Z,28.00
2019-02-02T17:12:49.378Z,31.77
2019-02-02T17:15:17.948Z,27.83
2019-02-02T17:17:46.596Z,30.97
2019-02-02T17:20:29.860Z,28.53
2019-02-02T17:22:58.427Z,29.70
2019-02-02T17:25:26.924Z,31.30
2019-02-02T17:27:55.518Z,30.57
2019-02-02T17:30:25.475Z,32.83
2019-02-02T17:33:00.254Z,31.73
2019-02-02T17:35:28.919Z,28.60
2019-02-02T17:37:57.532Z,33.10
2019-02-02T17:40:30.141Z,31.17
2019-02-02T17:42:58.811Z,32.27
2019-02-02T17:45:27.380Z,30.43
2019-02-02T17:47:56.025Z,31.70
2019-02-02T17:50:28.830Z,31.60
2019-02-02T17:52:57.431Z,31.37
2019-02-02T17:55:26.091Z,35.13
2019-02-02T17:57:54.733Z,30.93
2019-02-02T18:00:42.646Z,34.80
2019-02-02T18:03:11.234Z,32.50
2019-02-02T18:05:39.767Z,31.47
2019-02-02T18:08:08.267Z,32.37
2019-02-02T18:10:36.838Z,37.73
2019-02-02T18:13:05.436Z,32.37
2019-02-02T18:15:33.995Z,31.53
2019-02-02T18:18:02.705Z,33.83
2019-02-02T18:20:31.290Z,36.03
2019-02-02T18:22:59.918Z,32.57
2019-02-02T18:25:28.580Z,32.20
2019-02-02T18:27:57.187Z,34.43
2019-02-02T18:30:27.612Z,32.10
2019-02-02T18:32:56.272Z,36.20
2019-02-02T18:35:24.820Z,32.17
2019-02-02T18:37:53.479Z,33.77
2019-02-02T18:40:25.778Z,34.57
2019-02-02T18:42:54.434Z,33.50
2019-02-02T18:45:27.899Z,33.43
2019-02-02T18:47:56.491Z,34.53
2019-02-02T18:50:25.053Z,34.47
2019-02-02T18:52:56.076Z,32.43
2019-02-02T18:55:30.363Z,33.10
2019-02-02T18:57:58.965Z,32.33
2019-02-02T19:00:27.698Z,32.37
2019-02-02T19:02:56.260Z,33.87
2019-02-02T19:05:24.844Z,35.53
2019-02-02T19:07:53.374Z,34.30
2019-02-02T19:10:24.650Z,33.20
2019-02-02T19:12:53.297Z,36.53
2019-02-02T19:15:22.004Z,34.97
2019-02-02T19:17:50.773Z,35.47
2019-02-02T19:20:21.562Z,34.90
2019-02-02T19:22:50.274Z,33.80
2019-02-02T19:25:18.859Z,35.27
2019-02-02T19:27:47.443Z,37.23
2019-02-02T19:30:19.138Z,32.30
2019-02-02T19:32:47.738Z,35.07
2019-02-02T19:35:16.694Z,35.47
2019-02-02T19:37:45.549Z,32.63
2019-02-02T19:40:15.781Z,32.87
2019-02-02T19:42:44.388Z,32.50
2019-02-02T19:45:25.115Z,32.90
2019-02-02T19:47:53.788Z,32.63
2019-02-02T19:50:25.068Z,33.57
2019-02-02T19:52:54.020Z,31.70
2019-02-02T19:55:23.195Z,31.27
2019-02-02T19:57:51.701Z,30.90
2019-02-02T20:00:25.573Z,31.97
2019-02-02T20:02:54.453Z,31.77
2019-02-02T20:05:28.659Z,30.93
2019-02-02T20:07:53.367Z,29.77
2019-02-02T20:10:23.069Z,31.30
2019-02-02T20:12:51.620Z,32.97
2019-02-02T20:15:22.244Z,28.67
2019-02-02T20:17:50.823Z,29.63
2019-02-02T20:20:21.260Z,32.27
2019-02-02T20:22:50.211Z,32.27
2019-02-02T20:25:18.812Z,29.27
2019-02-02T20:27:47.388Z,29.83
2019-02-02T20:30:21.868Z,29.27
2019-02-02T20:32:50.482Z,28.03
2019-02-02T20:35:18.987Z,27.87
2019-02-02T20:37:47.580Z,27.93
2019-02-02T20:40:21.307Z,27.17
2019-02-02T20:42:49.858Z,24.37
2019-02-02T20:45:24.516Z,26.40
2019-02-02T20:47:53.116Z,28.43
2019-02-02T20:50:21.796Z,25.90
2019-02-02T20:52:50.428Z,27.63
2019-02-02T20:55:21.555Z,26.57
2019-02-02T20:57:51.186Z,27.63
2019-02-02T21:00:22.646Z,26.67
2019-02-02T21:02:51.303Z,25.93
2019-02-02T21:05:19.812Z,30.60
2019-02-02T21:07:48.511Z,22.53
2019-02-02T21:10:21.638Z,26.13
2019-02-02T21:12:50.270Z,25.27
2019-02-02T21:15:18.859Z,24.27
2019-02-02T21:17:47.514Z,23.90
2019-02-02T21:20:23.860Z,25.70
2019-02-02T21:22:52.750Z,24.63
2019-02-02T21:25:21.380Z,25.47
2019-02-02T21:27:50.010Z,26.40
2019-02-02T21:30:24.568Z,24.20
2019-02-02T21:32:53.147Z,23.63
2019-02-02T21:35:22.172Z,24.30
2019-02-02T21:37:50.768Z,24.17
2019-02-02T21:40:21.563Z,24.20
2019-02-02T21:42:50.067Z,23.03
2019-02-02T21:45:18.692Z,23.50
2019-02-02T21:47:47.282Z,23.23
2019-02-02T21:50:24.828Z,23.77
2019-02-02T21:52:53.645Z,23.17
2019-02-02T21:55:26.597Z,25.00
2019-02-02T21:57:55.241Z,23.00
2019-02-02T22:00:26.692Z,26.47
2019-02-02T22:02:55.251Z,22.93
2019-02-02T22:05:23.805Z,25.73
2019-02-02T22:07:52.380Z,25.77
2019-02-02T22:10:20.955Z,26.93
2019-02-02T22:12:52.427Z,24.63
2019-02-02T22:15:22.290Z,25.67
2019-02-02T22:17:50.964Z,25.20
2019-02-02T22:20:19.636Z,27.60
2019-02-02T22:22:48.306Z,26.80
2019-02-02T22:25:21.818Z,27.77
2019-02-02T22:27:50.574Z,27.27
2019-02-02T22:30:27.493Z,27.43
2019-02-02T22:32:56.132Z,28.30
2019-02-02T22:35:24.785Z,25.73
2019-02-02T22:37:53.269Z,27.00
2019-02-02T22:40:23.808Z,28.10
2019-02-02T22:42:52.285Z,27.43
2019-02-02T22:45:21.637Z,26.03
2019-02-02T22:47:50.660Z,26.97
2019-02-02T22:50:27.524Z,28.40
2019-02-02T22:52:56.191Z,27.43
2019-02-02T22:55:25.162Z,28.63
2019-02-02T22:57:54.204Z,28.63
2019-02-02T23:00:27.836Z,26.93
2019-02-02T23:02:56.499Z,25.60
2019-02-02T23:06:00.033Z,26.17
2019-02-02T23:08:46.760Z,29.60
2019-02-02T23:11:21.229Z,28.73
2019-02-02T23:14:15.260Z,26.37
2019-02-02T23:16:43.914Z,26.93
2019-02-02T23:19:12.475Z,26.70
2019-02-02T23:21:41.013Z,25.43
2019-02-02T23:24:09.579Z,28.33
2019-02-02T23:26:38.066Z,28.10
2019-02-02T23:29:06.900Z,27.70
2019-02-02T23:31:35.387Z,27.17
2019-02-02T23:34:03.955Z,28.20
2019-02-02T23:36:32.533Z,26.60
2019-02-02T23:39:01.202Z,27.63
2019-02-02T23:41:29.802Z,30.13
2019-02-02T23:43:58.492Z,27.10
2019-02-02T23:46:27.124Z,28.80
2019-02-02T23:48:55.610Z,28.63
2019-02-02T23:51:24.219Z,28.30
2019-02-02T23:53:52.955Z,30.17
2019-02-02T23:56:21.676Z,28.07
2019-02-02T23:58:50.233Z,28.53
